SACO/COR METAR and TAF weather

Enter ICAO airport designator
Station Type Date Time Source
SACO METAR 2022/01/29 14:00 UTC NOAA

SACO 291400Z 04010KT CAVOK 24/16 Q1014 NOSIG RMK PP000


Station Type Date Time Source
SACO Decoded METAR 2022/01/29 14:00 UTC NOAA

Cordoba Aerodrome, Argentina (SACO) 31-19S 064-13W 474M
Jan 29, 2022 - 09:00 AM EST / 2022.01.29 1400 UTC
Wind: from the NE (040 degrees) at 12 MPH (10 KT):0
Visibility: greater than 7 mile(s):0
Temperature: 75 F (24 C)
Dew Point: 60 F (16 C)
Relative Humidity: 60%
Pressure (altimeter): 29.94 in. Hg (1014 hPa)
ob: SACO 291400Z 04010KT CAVOK 24/16 Q1014 NOSIG RMK PP000
cycle: 14

Station Type Date Time Source
SACO TAF 2022/01/29 12:27 UTC NOAA

TAF TAF SACO 291100Z 2912/3012 05010KT CAVOK TX30/2918Z TN12/3009Z
BECMG 3003/3006 34005KT CAVOK

Example: see airport list